createdAt,value
2018-08-25T00:08:11.415Z,93417.83
2018-08-25T00:23:15.513Z,93413.80
2018-08-25T00:38:19.759Z,93421.63
2018-08-25T00:53:23.845Z,93438.61
2018-08-25T01:08:27.638Z,93441.32
2018-08-25T01:23:31.699Z,93444.88
2018-08-25T01:38:35.684Z,93452.41
2018-08-25T01:53:39.674Z,93440.23
2018-08-25T02:08:43.674Z,93436.25
2018-08-25T02:23:47.814Z,93447.55
2018-08-25T02:38:51.919Z,93456.73
2018-08-25T02:53:55.904Z,93459.82
2018-08-25T03:08:59.884Z,93456.80
2018-08-25T03:24:04.071Z,93449.98
2018-08-25T03:39:09.791Z,93457.69
2018-08-25T03:54:13.900Z,93454.05
2018-08-25T04:09:17.882Z,93466.25
2018-08-25T04:24:21.870Z,93469.87
2018-08-25T04:39:25.906Z,93466.59
2018-08-25T04:54:29.994Z,93463.73
2018-08-25T05:09:34.102Z,93457.81
2018-08-25T05:24:39.971Z,93454.95
2018-08-25T05:39:43.984Z,93456.98
2018-08-25T05:54:47.977Z,93455.72
2018-08-25T06:09:52.112Z,93465.70
2018-08-25T06:24:56.070Z,93461.56
2018-08-25T06:40:00.046Z,93459.28
2018-08-25T06:55:04.134Z,93465.66
2018-08-25T07:10:08.294Z,93458.00
2018-08-25T07:25:12.243Z,93455.89
2018-08-25T07:40:16.296Z,93453.16
2018-08-25T07:55:20.477Z,93445.73
2018-08-25T08:10:24.576Z,93432.97
2018-08-25T08:25:29.000Z,93438.39
2018-08-25T08:40:33.080Z,93440.66
2018-08-25T08:55:37.239Z,93433.55
2018-08-25T09:10:41.221Z,93411.25
2018-08-25T09:25:45.369Z,93392.81
2018-08-25T09:40:49.793Z,93374.42
2018-08-25T09:55:53.964Z,93367.77
2018-08-25T10:10:58.215Z,93362.84
2018-08-25T10:26:02.311Z,93356.75
2018-08-25T10:41:06.309Z,93335.19
2018-08-25T10:56:10.342Z,93328.83
2018-08-25T11:11:14.292Z,93328.84
2018-08-25T11:26:18.267Z,93315.67
2018-08-25T11:41:22.420Z,93318.20
2018-08-25T11:56:26.378Z,93311.31
2018-08-25T12:11:30.375Z,93309.69
2018-08-25T12:26:34.227Z,93289.65
2018-08-25T12:41:37.982Z,93276.75
2018-08-25T12:56:41.736Z,93253.60
2018-08-25T13:11:45.517Z,93216.52
2018-08-25T13:26:49.287Z,93217.63
2018-08-25T13:41:54.510Z,93219.50
2018-08-25T13:56:58.519Z,93200.73
2018-08-25T14:12:02.671Z,93226.04
2018-08-25T14:27:06.500Z,93230.20
2018-08-25T14:42:10.785Z,93220.70
2018-08-25T14:57:14.842Z,93215.31
2018-08-25T15:12:19.066Z,93214.73
2018-08-25T15:27:23.123Z,93202.69
2018-08-25T15:42:28.835Z,93204.05
2018-08-25T15:57:32.903Z,93234.84
2018-08-25T16:12:37.096Z,93226.52
2018-08-25T16:27:40.846Z,93248.81
2018-08-25T16:42:44.872Z,93261.03
2018-08-25T16:57:48.605Z,93260.19
2018-08-25T17:12:53.008Z,93269.38
2018-08-25T17:27:56.947Z,93283.02
2018-08-25T17:43:00.715Z,93282.58
2018-08-25T17:58:04.513Z,93276.75
2018-08-25T18:13:08.270Z,93287.05
2018-08-25T18:28:12.010Z,93288.12
2018-08-25T18:43:15.753Z,93284.89
2018-08-25T18:58:19.576Z,93288.53
2018-08-25T19:13:23.657Z,93309.05
2018-08-25T19:28:27.760Z,93314.31
2018-08-25T19:43:31.808Z,93319.19
2018-08-25T19:58:39.381Z,93326.95
2018-08-25T20:13:43.199Z,93327.95
2018-08-25T20:28:46.923Z,93330.23
2018-08-25T20:43:50.695Z,93333.63
2018-08-25T20:58:54.878Z,93328.91
2018-08-25T21:13:59.181Z,93328.62
2018-08-25T21:29:03.390Z,93317.95
2018-08-25T21:44:07.760Z,93320.00
2018-08-25T21:59:11.867Z,93317.48
2018-08-25T22:14:15.987Z,93315.91
2018-08-25T22:29:20.159Z,93307.11
2018-08-25T22:44:24.215Z,93299.70
2018-08-25T22:59:28.357Z,93300.14
2018-08-25T23:14:32.456Z,93294.43
2018-08-25T23:29:36.451Z,93287.09
2018-08-25T23:44:40.640Z,93272.03
2018-08-25T23:59:44.637Z,93270.97
